sensor_id;sensor_type;location;lat;lon;timestamp;temperature;humidity
26051;DHT22;13825;53.496;10.020;2023-01-25T00:00:09;0.20;1.00
26051;DHT22;13825;53.496;10.020;2023-01-25T00:02:36;0.20;1.00
26051;DHT22;13825;53.496;10.020;2023-01-25T00:05:04;0.20;1.00
26051;DHT22;13825;53.496;10.020;2023-01-25T00:07:31;0.20;1.00
26051;DHT22;13825;53.496;10.020;2023-01-25T00:09:58;0.20;1.00
26051;DHT22;13825;53.496;10.020;2023-01-25T00:12:26;0.20;1.00
26051;DHT22;13825;53.496;10.020;2023-01-25T00:14:53;0.20;1.00
26051;DHT22;13825;53.496;10.020;2023-01-25T00:17:20;0.20;1.00
26051;DHT22;13825;53.496;10.020;2023-01-25T00:19:47;0.20;1.00
26051;DHT22;13825;53.496;10.020;2023-01-25T00:22:14;0.10;1.00
26051;DHT22;13825;53.496;10.020;2023-01-25T00:24:41;0.10;1.00
26051;DHT22;13825;53.496;10.020;2023-01-25T00:27:08;0.00;1.00
26051;DHT22;13825;53.496;10.020;2023-01-25T00:32:40;0.00;1.00
26051;DHT22;13825;53.496;10.020;2023-01-25T00:35:10;0.10;1.00
26051;DHT22;13825;53.496;10.020;2023-01-25T00:37:39;0.10;1.00
26051;DHT22;13825;53.496;10.020;2023-01-25T00:40:11;0.20;1.00
26051;DHT22;13825;53.496;10.020;2023-01-25T00:42:39;0.20;1.00
26051;DHT22;13825;53.496;10.020;2023-01-25T00:45:10;0.10;1.00
26051;DHT22;13825;53.496;10.020;2023-01-25T00:47:37;0.10;1.00
26051;DHT22;13825;53.496;10.020;2023-01-25T00:50:06;0.00;1.00
26051;DHT22;13825;53.496;10.020;2023-01-25T00:52:33;0.10;1.00
26051;DHT22;13825;53.496;10.020;2023-01-25T00:55:00;-0.10;1.00
26051;DHT22;13825;53.496;10.020;2023-01-25T00:57:27;0.00;1.00
26051;DHT22;13825;53.496;10.020;2023-01-25T01:00:01;0.10;1.00
26051;DHT22;13825;53.496;10.020;2023-01-25T01:02:31;-0.10;1.00
26051;DHT22;13825;53.496;10.020;2023-01-25T01:04:58;0.00;1.00
26051;DHT22;13825;53.496;10.020;2023-01-25T01:07:26;0.00;1.00
26051;DHT22;13825;53.496;10.020;2023-01-25T02:31:03;-0.30;99.90
26051;DHT22;13825;53.496;10.020;2023-01-25T02:33:31;-0.30;99.90
26051;DHT22;13825;53.496;10.020;2023-01-25T02:36:00;-0.30;99.90
26051;DHT22;13825;53.496;10.020;2023-01-25T02:38:43;-0.30;99.90
26051;DHT22;13825;53.496;10.020;2023-01-25T02:41:18;-0.40;99.90
26051;DHT22;13825;53.496;10.020;2023-01-25T02:43:50;-0.30;99.90
26051;DHT22;13825;53.496;10.020;2023-01-25T02:46:25;-0.30;99.90
26051;DHT22;13825;53.496;10.020;2023-01-25T02:48:57;-0.30;99.90
26051;DHT22;13825;53.496;10.020;2023-01-25T02:51:27;-0.40;99.90
26051;DHT22;13825;53.496;10.020;2023-01-25T02:53:58;-0.30;99.90
26051;DHT22;13825;53.496;10.020;2023-01-25T02:56:26;-0.40;99.90
26051;DHT22;13825;53.496;10.020;2023-01-25T02:58:54;-0.30;99.90
26051;DHT22;13825;53.496;10.020;2023-01-25T03:01:25;-0.40;99.90
26051;DHT22;13825;53.496;10.020;2023-01-25T03:03:53;-0.40;99.90
26051;DHT22;13825;53.496;10.020;2023-01-25T03:06:23;-0.40;99.90
26051;DHT22;13825;53.496;10.020;2023-01-25T03:08:51;-0.50;99.90
26051;DHT22;13825;53.496;10.020;2023-01-25T03:11:19;-0.50;99.90
26051;DHT22;13825;53.496;10.020;2023-01-25T03:13:47;-0.40;99.90
26051;DHT22;13825;53.496;10.020;2023-01-25T03:16:15;-0.40;99.90
26051;DHT22;13825;53.496;10.020;2023-01-25T03:18:52;-0.40;99.90
26051;DHT22;13825;53.496;10.020;2023-01-25T03:21:21;-0.50;99.90
26051;DHT22;13825;53.496;10.020;2023-01-25T03:23:55;-0.50;99.90
26051;DHT22;13825;53.496;10.020;2023-01-25T03:26:23;-0.50;99.90
26051;DHT22;13825;53.496;10.020;2023-01-25T03:28:54;-0.50;99.90
26051;DHT22;13825;53.496;10.020;2023-01-25T03:31:22;-0.50;99.90
26051;DHT22;13825;53.496;10.020;2023-01-25T03:33:51;-0.40;99.90
26051;DHT22;13825;53.496;10.020;2023-01-25T03:36:19;-0.30;99.90
26051;DHT22;13825;53.496;10.020;2023-01-25T03:38:46;-0.40;99.90
26051;DHT22;13825;53.496;10.020;2023-01-25T03:41:17;-0.50;99.90
26051;DHT22;13825;53.496;10.020;2023-01-25T03:43:47;-0.50;99.90
26051;DHT22;13825;53.496;10.020;2023-01-25T03:46:21;-0.50;99.90
26051;DHT22;13825;53.496;10.020;2023-01-25T03:48:53;-0.50;99.90
26051;DHT22;13825;53.496;10.020;2023-01-25T03:51:20;-0.40;99.90
26051;DHT22;13825;53.496;10.020;2023-01-25T03:53:50;-0.40;99.90
26051;DHT22;13825;53.496;10.020;2023-01-25T03:56:20;-0.40;99.90
26051;DHT22;13825;53.496;10.020;2023-01-25T03:58:48;-0.40;99.90
26051;DHT22;13825;53.496;10.020;2023-01-25T04:01:21;-0.50;46.00
26051;DHT22;13825;53.496;10.020;2023-01-25T04:03:48;-0.50;87.90
26051;DHT22;13825;53.496;10.020;2023-01-25T04:06:19;-0.40;85.00
26051;DHT22;13825;53.496;10.020;2023-01-25T04:08:47;-0.50;19.60
26051;DHT22;13825;53.496;10.020;2023-01-25T04:11:15;-0.50;30.80
26051;DHT22;13825;53.496;10.020;2023-01-25T04:13:42;-0.50;33.40
26051;DHT22;13825;53.496;10.020;2023-01-25T04:16:12;-0.40;53.60
26051;DHT22;13825;53.496;10.020;2023-01-25T04:18:39;-0.40;1.00
26051;DHT22;13825;53.496;10.020;2023-01-25T04:21:07;-0.50;1.00
26051;DHT22;13825;53.496;10.020;2023-01-25T04:23:36;-0.50;1.00
26051;DHT22;13825;53.496;10.020;2023-01-25T04:26:07;-0.50;1.00
26051;DHT22;13825;53.496;10.020;2023-01-25T04:28:37;-0.50;1.00
26051;DHT22;13825;53.496;10.020;2023-01-25T04:31:06;-0.50;1.00
26051;DHT22;13825;53.496;10.020;2023-01-25T04:33:41;-0.50;1.00
26051;DHT22;13825;53.496;10.020;2023-01-25T04:36:15;-0.70;1.00
26051;DHT22;13825;53.496;10.020;2023-01-25T04:38:43;-0.60;1.00
26051;DHT22;13825;53.496;10.020;2023-01-25T04:41:26;-0.60;1.00
26051;DHT22;13825;53.496;10.020;2023-01-25T04:43:56;-0.70;1.00
26051;DHT22;13825;53.496;10.020;2023-01-25T04:46:24;-0.70;1.00
26051;DHT22;13825;53.496;10.020;2023-01-25T04:48:51;-0.70;1.00
26051;DHT22;13825;53.496;10.020;2023-01-25T04:51:18;-0.70;1.00
26051;DHT22;13825;53.496;10.020;2023-01-25T04:53:49;-0.70;1.00
26051;DHT22;13825;53.496;10.020;2023-01-25T04:56:28;-0.70;1.00
26051;DHT22;13825;53.496;10.020;2023-01-25T04:59:01;-0.70;1.00
26051;DHT22;13825;53.496;10.020;2023-01-25T05:01:36;-0.60;1.00
26051;DHT22;13825;53.496;10.020;2023-01-25T05:04:11;-0.60;1.00
26051;DHT22;13825;53.496;10.020;2023-01-25T05:09:21;-0.70;1.00
26051;DHT22;13825;53.496;10.020;2023-01-25T05:11:49;-0.80;1.00
26051;DHT22;13825;53.496;10.020;2023-01-25T05:14:18;-0.70;1.00
26051;DHT22;13825;53.496;10.020;2023-01-25T05:16:48;-0.70;1.00
26051;DHT22;13825;53.496;10.020;2023-01-25T05:19:18;-0.70;1.00
26051;DHT22;13825;53.496;10.020;2023-01-25T05:21:49;-0.70;1.00
26051;DHT22;13825;53.496;10.020;2023-01-25T05:24:32;-0.60;1.00
26051;DHT22;13825;53.496;10.020;2023-01-25T05:27:18;-0.60;1.00
26051;DHT22;13825;53.496;10.020;2023-01-25T05:29:46;-0.60;1.00
26051;DHT22;13825;53.496;10.020;2023-01-25T05:32:15;-0.60;1.00
26051;DHT22;13825;53.496;10.020;2023-01-25T05:34:43;-0.60;1.00
26051;DHT22;13825;53.496;10.020;2023-01-25T05:37:12;-0.60;1.00
26051;DHT22;13825;53.496;10.020;2023-01-25T05:39:41;-0.60;1.00
26051;DHT22;13825;53.496;10.020;2023-01-25T05:42:10;-0.50;1.00
26051;DHT22;13825;53.496;10.020;2023-01-25T05:44:38;-0.60;1.00
26051;DHT22;13825;53.496;10.020;2023-01-25T05:47:05;-0.60;1.00
26051;DHT22;13825;53.496;10.020;2023-01-25T05:49:32;-0.60;1.00
26051;DHT22;13825;53.496;10.020;2023-01-25T05:51:59;-0.70;1.00
26051;DHT22;13825;53.496;10.020;2023-01-25T05:54:26;-0.60;1.00
26051;DHT22;13825;53.496;10.020;2023-01-25T05:56:55;-0.60;1.00
26051;DHT22;13825;53.496;10.020;2023-01-25T05:59:38;-0.70;1.00
26051;DHT22;13825;53.496;10.020;2023-01-25T06:02:31;-0.70;1.00
26051;DHT22;13825;53.496;10.020;2023-01-25T06:05:00;-0.70;1.00
26051;DHT22;13825;53.496;10.020;2023-01-25T06:07:32;-0.60;1.00
26051;DHT22;13825;53.496;10.020;2023-01-25T06:10:00;-0.60;1.00
26051;DHT22;13825;53.496;10.020;2023-01-25T06:12:31;-0.60;1.00
26051;DHT22;13825;53.496;10.020;2023-01-25T06:18:59;-0.60;1.00
26051;DHT22;13825;53.496;10.020;2023-01-25T06:21:32;-0.60;1.00
26051;DHT22;13825;53.496;10.020;2023-01-25T06:24:27;-0.60;1.00
26051;DHT22;13825;53.496;10.020;2023-01-25T06:27:09;-0.70;1.00
26051;DHT22;13825;53.496;10.020;2023-01-25T06:30:19;-0.70;1.00
26051;DHT22;13825;53.496;10.020;2023-01-25T06:33:05;-0.70;1.00
26051;DHT22;13825;53.496;10.020;2023-01-25T06:35:57;-0.80;1.00
26051;DHT22;13825;53.496;10.020;2023-01-25T06:38:34;-0.70;1.00
26051;DHT22;13825;53.496;10.020;2023-01-25T06:41:15;-0.70;1.00
26051;DHT22;13825;53.496;10.020;2023-01-25T06:43:46;-0.70;1.00
26051;DHT22;13825;53.496;10.020;2023-01-25T06:47:03;-0.70;1.00
26051;DHT22;13825;53.496;10.020;2023-01-25T06:49:47;-0.70;1.00
26051;DHT22;13825;53.496;10.020;2023-01-25T06:52:28;-0.70;1.00
26051;DHT22;13825;53.496;10.020;2023-01-25T06:55:20;-0.80;1.00
26051;DHT22;13825;53.496;10.020;2023-01-25T06:59:11;-0.80;1.00
26051;DHT22;13825;53.496;10.020;2023-01-25T07:01:15;-0.80;1.00
26051;DHT22;13825;53.496;10.020;2023-01-25T07:04:07;-0.80;1.00
26051;DHT22;13825;53.496;10.020;2023-01-25T07:07:32;-0.80;1.00
26051;DHT22;13825;53.496;10.020;2023-01-25T07:10:20;-0.80;1.00
26051;DHT22;13825;53.496;10.020;2023-01-25T07:12:51;-0.80;1.00
26051;DHT22;13825;53.496;10.020;2023-01-25T07:15:42;-0.80;1.00
26051;DHT22;13825;53.496;10.020;2023-01-25T07:18:23;-0.80;1.00
26051;DHT22;13825;53.496;10.020;2023-01-25T07:21:21;-0.90;1.00
26051;DHT22;13825;53.496;10.020;2023-01-25T07:24:05;-0.90;1.00
26051;DHT22;13825;53.496;10.020;2023-01-25T07:26:47;-0.90;1.00
26051;DHT22;13825;53.496;10.020;2023-01-25T07:29:37;-0.90;1.00
26051;DHT22;13825;53.496;10.020;2023-01-25T07:32:13;-0.80;1.00
26051;DHT22;13825;53.496;10.020;2023-01-25T07:34:40;-0.80;1.00
26051;DHT22;13825;53.496;10.020;2023-01-25T07:37:20;-0.80;1.00
26051;DHT22;13825;53.496;10.020;2023-01-25T07:50:38;-0.80;1.00
26051;DHT22;13825;53.496;10.020;2023-01-25T07:53:53;-0.80;1.00
26051;DHT22;13825;53.496;10.020;2023-01-25T07:56:48;-0.80;1.00
26051;DHT22;13825;53.496;10.020;2023-01-25T08:10:07;-0.80;1.00
26051;DHT22;13825;53.496;10.020;2023-01-25T08:13:15;-0.80;1.00
26051;DHT22;13825;53.496;10.020;2023-01-25T08:15:59;-0.90;1.00
26051;DHT22;13825;53.496;10.020;2023-01-25T09:58:00;-0.50;1.00
26051;DHT22;13825;53.496;10.020;2023-01-25T10:01:01;-0.50;1.00
26051;DHT22;13825;53.496;10.020;2023-01-25T10:04:05;-0.50;1.00
26051;DHT22;13825;53.496;10.020;2023-01-25T10:06:57;-0.50;1.00
26051;DHT22;13825;53.496;10.020;2023-01-25T10:09:40;-0.40;1.00
26051;DHT22;13825;53.496;10.020;2023-01-25T10:12:40;-0.40;1.00
26051;DHT22;13825;53.496;10.020;2023-01-25T10:25:27;-0.30;1.00
26051;DHT22;13825;53.496;10.020;2023-01-25T10:28:25;-0.30;1.00
26051;DHT22;13825;53.496;10.020;2023-01-25T10:31:25;-0.20;1.00
26051;DHT22;13825;53.496;10.020;2023-01-25T10:34:32;-0.20;1.00
26051;DHT22;13825;53.496;10.020;2023-01-25T10:37:51;-0.30;1.00
26051;DHT22;13825;53.496;10.020;2023-01-25T10:41:04;-0.10;1.00
26051;DHT22;13825;53.496;10.020;2023-01-25T10:43:41;0.00;1.00
26051;DHT22;13825;53.496;10.020;2023-01-25T10:46:23;-0.10;1.00
26051;DHT22;13825;53.496;10.020;2023-01-25T10:49:22;-0.10;1.00
26051;DHT22;13825;53.496;10.020;2023-01-25T10:52:13;-0.10;1.00
26051;DHT22;13825;53.496;10.020;2023-01-25T10:55:05;-0.30;1.00
26051;DHT22;13825;53.496;10.020;2023-01-25T10:58:01;-0.20;1.00
26051;DHT22;13825;53.496;10.020;2023-01-25T11:00:37;-0.20;1.00
26051;DHT22;13825;53.496;10.020;2023-01-25T11:03:32;-0.20;1.00
26051;DHT22;13825;53.496;10.020;2023-01-25T11:06:13;-0.20;1.00
26051;DHT22;13825;53.496;10.020;2023-01-25T11:12:21;-0.30;1.00
26051;DHT22;13825;53.496;10.020;2023-01-25T11:14:53;-0.30;1.00
26051;DHT22;13825;53.496;10.020;2023-01-25T11:20:10;-0.20;1.00
26051;DHT22;13825;53.496;10.020;2023-01-25T11:22:55;-0.20;1.00
26051;DHT22;13825;53.496;10.020;2023-01-25T11:25:47;-0.10;1.00
26051;DHT22;13825;53.496;10.020;2023-01-25T11:28:32;-0.20;1.00
26051;DHT22;13825;53.496;10.020;2023-01-25T11:31:18;-0.10;1.00
26051;DHT22;13825;53.496;10.020;2023-01-25T11:33:56;-0.30;1.00
26051;DHT22;13825;53.496;10.020;2023-01-25T11:36:34;-0.30;1.00
26051;DHT22;13825;53.496;10.020;2023-01-25T11:39:28;-0.30;1.00
26051;DHT22;13825;53.496;10.020;2023-01-25T11:42:11;-0.30;1.00
26051;DHT22;13825;53.496;10.020;2023-01-25T11:48:11;-0.20;1.00
26051;DHT22;13825;53.496;10.020;2023-01-25T11:50:46;-0.20;1.00
26051;DHT22;13825;53.496;10.020;2023-01-25T11:56:24;-0.10;1.00
26051;DHT22;13825;53.496;10.020;2023-01-25T12:09:50;-0.20;1.00
26051;DHT22;13825;53.496;10.020;2023-01-25T12:12:48;-0.20;1.00
26051;DHT22;13825;53.496;10.020;2023-01-25T12:18:32;-0.30;1.00
26051;DHT22;13825;53.496;10.020;2023-01-25T12:21:05;-0.30;1.00
26051;DHT22;13825;53.496;10.020;2023-01-25T12:23:54;-0.20;1.00
26051;DHT22;13825;53.496;10.020;2023-01-25T12:26:29;-0.20;1.00
26051;DHT22;13825;53.496;10.020;2023-01-25T12:29:20;-0.10;1.00
26051;DHT22;13825;53.496;10.020;2023-01-25T12:32:06;-0.20;1.00
26051;DHT22;13825;53.496;10.020;2023-01-25T12:34:51;-0.20;1.00
26051;DHT22;13825;53.496;10.020;2023-01-25T12:37:29;0.00;1.00
26051;DHT22;13825;53.496;10.020;2023-01-25T12:40:02;-0.10;1.00
26051;DHT22;13825;53.496;10.020;2023-01-25T12:42:41;-0.10;1.00
26051;DHT22;13825;53.496;10.020;2023-01-25T12:45:13;-0.20;1.00
26051;DHT22;13825;53.496;10.020;2023-01-25T12:47:45;-0.20;1.00
26051;DHT22;13825;53.496;10.020;2023-01-25T12:50:17;-0.30;1.00
26051;DHT22;13825;53.496;10.020;2023-01-25T12:52:46;-0.30;1.00
26051;DHT22;13825;53.496;10.020;2023-01-25T12:55:16;-0.30;1.00
26051;DHT22;13825;53.496;10.020;2023-01-25T12:57:50;-0.30;1.00
26051;DHT22;13825;53.496;10.020;2023-01-25T13:00:22;-0.30;1.00
26051;DHT22;13825;53.496;10.020;2023-01-25T13:03:09;-0.30;1.00
26051;DHT22;13825;53.496;10.020;2023-01-25T13:05:40;-0.40;1.00
26051;DHT22;13825;53.496;10.020;2023-01-25T13:08:20;-0.40;1.00
26051;DHT22;13825;53.496;10.020;2023-01-25T13:10:51;-0.40;1.00
26051;DHT22;13825;53.496;10.020;2023-01-25T13:13:23;-0.40;1.00
26051;DHT22;13825;53.496;10.020;2023-01-25T13:15:52;-0.30;1.00
26051;DHT22;13825;53.496;10.020;2023-01-25T13:18:36;-0.30;1.00
26051;DHT22;13825;53.496;10.020;2023-01-25T13:21:08;-0.30;1.00
26051;DHT22;13825;53.496;10.020;2023-01-25T13:23:37;-0.30;1.00
26051;DHT22;13825;53.496;10.020;2023-01-25T13:29:44;-0.30;1.00
26051;DHT22;13825;53.496;10.020;2023-01-25T13:35:42;-0.20;1.00
26051;DHT22;13825;53.496;10.020;2023-01-25T13:38:32;-0.30;1.00
26051;DHT22;13825;53.496;10.020;2023-01-25T13:41:21;-0.50;1.00
26051;DHT22;13825;53.496;10.020;2023-01-25T13:44:07;-0.40;1.00
26051;DHT22;13825;53.496;10.020;2023-01-25T13:46:39;-0.50;40.40
26051;DHT22;13825;53.496;10.020;2023-01-25T13:49:16;-0.50;85.10
26051;DHT22;13825;53.496;10.020;2023-01-25T13:51:44;-0.60;99.90
26051;DHT22;13825;53.496;10.020;2023-01-25T13:54:14;-0.50;99.90
26051;DHT22;13825;53.496;10.020;2023-01-25T13:56:42;-0.50;99.90
26051;DHT22;13825;53.496;10.020;2023-01-25T13:59:23;-0.50;99.90
26051;DHT22;13825;53.496;10.020;2023-01-25T14:01:51;-0.50;99.90
26051;DHT22;13825;53.496;10.020;2023-01-25T14:04:20;-0.50;99.90
26051;DHT22;13825;53.496;10.020;2023-01-25T14:06:47;-0.40;99.90
26051;DHT22;13825;53.496;10.020;2023-01-25T14:09:16;-0.40;99.90
26051;DHT22;13825;53.496;10.020;2023-01-25T14:11:47;-0.40;99.90
26051;DHT22;13825;53.496;10.020;2023-01-25T14:14:18;-0.40;99.90
26051;DHT22;13825;53.496;10.020;2023-01-25T14:16:59;-0.40;99.90
26051;DHT22;13825;53.496;10.020;2023-01-25T14:19:28;-0.40;99.90
26051;DHT22;13825;53.496;10.020;2023-01-25T14:22:21;-0.50;99.90
26051;DHT22;13825;53.496;10.020;2023-01-25T14:25:05;-0.60;99.90
26051;DHT22;13825;53.496;10.020;2023-01-25T14:27:34;-0.50;99.90
26051;DHT22;13825;53.496;10.020;2023-01-25T14:30:03;-0.60;99.90
26051;DHT22;13825;53.496;10.020;2023-01-25T14:32:30;-0.60;1.00
26051;DHT22;13825;53.496;10.020;2023-01-25T14:35:31;-0.60;1.00
26051;DHT22;13825;53.496;10.020;2023-01-25T14:37:58;-0.60;1.00
26051;DHT22;13825;53.496;10.020;2023-01-25T14:40:27;-0.50;1.00
26051;DHT22;13825;53.496;10.020;2023-01-25T14:42:55;-0.60;1.00
26051;DHT22;13825;53.496;10.020;2023-01-25T14:45:23;-0.60;1.00
26051;DHT22;13825;53.496;10.020;2023-01-25T14:47:54;-0.60;1.00
26051;DHT22;13825;53.496;10.020;2023-01-25T14:50:34;-0.50;1.00
26051;DHT22;13825;53.496;10.020;2023-01-25T14:53:07;-0.60;1.00
26051;DHT22;13825;53.496;10.020;2023-01-25T14:55:50;-0.70;1.00
26051;DHT22;13825;53.496;10.020;2023-01-25T14:58:21;-0.70;1.00
26051;DHT22;13825;53.496;10.020;2023-01-25T15:00:51;-0.80;1.00
26051;DHT22;13825;53.496;10.020;2023-01-25T15:03:33;-0.70;19.70
26051;DHT22;13825;53.496;10.020;2023-01-25T15:06:12;-0.70;28.90
26051;DHT22;13825;53.496;10.020;2023-01-25T15:08:44;-0.70;1.00
26051;DHT22;13825;53.496;10.020;2023-01-25T15:11:29;-0.80;20.60
26051;DHT22;13825;53.496;10.020;2023-01-25T15:14:45;-0.80;94.30
26051;DHT22;13825;53.496;10.020;2023-01-25T15:17:51;-0.80;99.90
26051;DHT22;13825;53.496;10.020;2023-01-25T15:20:32;-0.90;99.90
26051;DHT22;13825;53.496;10.020;2023-01-25T15:23:15;-0.90;99.90
26051;DHT22;13825;53.496;10.020;2023-01-25T15:26:01;-0.90;99.90
26051;DHT22;13825;53.496;10.020;2023-01-25T15:32:08;-0.90;99.90
26051;DHT22;13825;53.496;10.020;2023-01-25T15:35:48;-0.90;99.90
26051;DHT22;13825;53.496;10.020;2023-01-25T16:15:06;-1.10;1.00
26051;DHT22;13825;53.496;10.020;2023-01-25T16:24:22;-1.20;49.10
26051;DHT22;13825;53.496;10.020;2023-01-25T16:26:56;-1.20;99.90
26051;DHT22;13825;53.496;10.020;2023-01-25T16:35:30;-1.20;99.90
26051;DHT22;13825;53.496;10.020;2023-01-25T16:37:57;-1.10;99.90
26051;DHT22;13825;53.496;10.020;2023-01-25T16:40:26;-1.10;99.90
26051;DHT22;13825;53.496;10.020;2023-01-25T16:43:31;-1.20;99.90
26051;DHT22;13825;53.496;10.020;2023-01-25T17:20:41;-1.10;99.90
26051;DHT22;13825;53.496;10.020;2023-01-25T17:27:23;-1.10;99.90
26051;DHT22;13825;53.496;10.020;2023-01-25T19:11:32;-1.80;99.90
26051;DHT22;13825;53.496;10.020;2023-01-25T19:14:03;-1.80;99.90
26051;DHT22;13825;53.496;10.020;2023-01-25T19:18:01;-1.90;99.90
26051;DHT22;13825;53.496;10.020;2023-01-25T19:31:41;-1.80;99.90
26051;DHT22;13825;53.496;10.020;2023-01-25T19:35:10;-1.80;99.90
26051;DHT22;13825;53.496;10.020;2023-01-25T19:41:28;-1.70;99.90
26051;DHT22;13825;53.496;10.020;2023-01-25T19:44:10;-1.80;99.90
26051;DHT22;13825;53.496;10.020;2023-01-25T19:46:39;-1.70;99.90
26051;DHT22;13825;53.496;10.020;2023-01-25T19:49:08;-1.70;99.90
26051;DHT22;13825;53.496;10.020;2023-01-25T19:51:38;-1.60;99.90
26051;DHT22;13825;53.496;10.020;2023-01-25T19:54:09;-1.60;99.90
26051;DHT22;13825;53.496;10.020;2023-01-25T19:56:37;-1.60;99.90
26051;DHT22;13825;53.496;10.020;2023-01-25T19:59:06;-1.60;99.90
26051;DHT22;13825;53.496;10.020;2023-01-25T20:05:32;-1.50;99.90
26051;DHT22;13825;53.496;10.020;2023-01-25T20:14:26;-1.50;99.90
26051;DHT22;13825;53.496;10.020;2023-01-25T20:32:18;-1.50;99.90
26051;DHT22;13825;53.496;10.020;2023-01-25T20:34:45;-1.40;99.90
26051;DHT22;13825;53.496;10.020;2023-01-25T20:39:58;-1.50;99.90
26051;DHT22;13825;53.496;10.020;2023-01-25T20:42:27;-1.60;99.90
26051;DHT22;13825;53.496;10.020;2023-01-25T20:44:54;-1.60;99.90
26051;DHT22;13825;53.496;10.020;2023-01-25T20:47:21;-1.60;99.90
26051;DHT22;13825;53.496;10.020;2023-01-25T20:49:48;-1.60;99.90
26051;DHT22;13825;53.496;10.020;2023-01-25T20:52:15;-1.50;99.90
26051;DHT22;13825;53.496;10.020;2023-01-25T20:54:42;-1.50;99.90
26051;DHT22;13825;53.496;10.020;2023-01-25T20:57:18;-1.50;99.90
26051;DHT22;13825;53.496;10.020;2023-01-25T21:00:00;-1.60;99.90
26051;DHT22;13825;53.496;10.020;2023-01-25T21:02:27;-1.50;1.00
26051;DHT22;13825;53.496;10.020;2023-01-25T21:04:54;-1.50;1.00
26051;DHT22;13825;53.496;10.020;2023-01-25T21:07:21;-1.40;1.00
26051;DHT22;13825;53.496;10.020;2023-01-25T21:09:48;-1.40;99.90
26051;DHT22;13825;53.496;10.020;2023-01-25T21:12:15;-1.40;99.90
26051;DHT22;13825;53.496;10.020;2023-01-25T21:14:42;-1.40;99.90
26051;DHT22;13825;53.496;10.020;2023-01-25T21:17:10;-1.40;99.90
26051;DHT22;13825;53.496;10.020;2023-01-25T21:19:38;-1.40;99.90
26051;DHT22;13825;53.496;10.020;2023-01-25T21:22:05;-1.40;99.90
26051;DHT22;13825;53.496;10.020;2023-01-25T21:24:32;-1.40;99.90
26051;DHT22;13825;53.496;10.020;2023-01-25T21:26:59;-1.40;1.00
26051;DHT22;13825;53.496;10.020;2023-01-25T21:29:26;-1.40;1.00
26051;DHT22;13825;53.496;10.020;2023-01-25T21:31:53;-1.30;1.00
26051;DHT22;13825;53.496;10.020;2023-01-25T21:34:21;-1.30;1.00
26051;DHT22;13825;53.496;10.020;2023-01-25T21:36:48;-1.30;1.00
26051;DHT22;13825;53.496;10.020;2023-01-25T21:39:15;-1.40;1.00
26051;DHT22;13825;53.496;10.020;2023-01-25T21:41:42;-1.40;1.00
26051;DHT22;13825;53.496;10.020;2023-01-25T21:44:09;-1.40;1.00
26051;DHT22;13825;53.496;10.020;2023-01-25T21:46:54;-1.40;1.00
26051;DHT22;13825;53.496;10.020;2023-01-25T21:49:24;-1.40;1.00
26051;DHT22;13825;53.496;10.020;2023-01-25T21:52:08;-1.40;1.00
26051;DHT22;13825;53.496;10.020;2023-01-25T21:54:36;-1.40;1.00
26051;DHT22;13825;53.496;10.020;2023-01-25T21:57:04;-1.50;1.00
26051;DHT22;13825;53.496;10.020;2023-01-25T21:59:32;-1.50;1.00
26051;DHT22;13825;53.496;10.020;2023-01-25T22:02:02;-1.40;6.60
26051;DHT22;13825;53.496;10.020;2023-01-25T22:04:31;-1.40;1.00
26051;DHT22;13825;53.496;10.020;2023-01-25T22:07:00;-1.50;1.00
26051;DHT22;13825;53.496;10.020;2023-01-25T22:09:27;-1.50;1.00
26051;DHT22;13825;53.496;10.020;2023-01-25T22:11:54;-1.40;90.60
26051;DHT22;13825;53.496;10.020;2023-01-25T22:14:21;-1.40;7.20
26051;DHT22;13825;53.496;10.020;2023-01-25T22:16:48;-1.40;99.90
26051;DHT22;13825;53.496;10.020;2023-01-25T22:19:15;-1.50;99.90
26051;DHT22;13825;53.496;10.020;2023-01-25T22:21:44;-1.30;99.90
26051;DHT22;13825;53.496;10.020;2023-01-25T22:24:12;-1.40;99.90
26051;DHT22;13825;53.496;10.020;2023-01-25T22:26:44;-1.40;99.90
26051;DHT22;13825;53.496;10.020;2023-01-25T22:29:13;-1.40;99.90
26051;DHT22;13825;53.496;10.020;2023-01-25T22:31:40;-1.40;99.90
26051;DHT22;13825;53.496;10.020;2023-01-25T22:34:07;-1.30;99.90
26051;DHT22;13825;53.496;10.020;2023-01-25T22:36:34;-1.30;99.90
26051;DHT22;13825;53.496;10.020;2023-01-25T22:39:04;-1.30;99.90
26051;DHT22;13825;53.496;10.020;2023-01-25T22:41:31;-1.40;99.90
26051;DHT22;13825;53.496;10.020;2023-01-25T22:43:58;-1.40;99.90
26051;DHT22;13825;53.496;10.020;2023-01-25T22:46:27;-1.40;99.90
26051;DHT22;13825;53.496;10.020;2023-01-25T22:48:54;-1.40;99.90
26051;DHT22;13825;53.496;10.020;2023-01-25T22:51:26;-1.30;99.90
26051;DHT22;13825;53.496;10.020;2023-01-25T22:53:53;-1.30;99.90
26051;DHT22;13825;53.496;10.020;2023-01-25T22:56:24;-1.40;99.90
26051;DHT22;13825;53.496;10.020;2023-01-25T22:58:51;-1.40;99.90
26051;DHT22;13825;53.496;10.020;2023-01-25T23:01:20;-1.40;99.90
26051;DHT22;13825;53.496;10.020;2023-01-25T23:03:47;-1.30;99.90
26051;DHT22;13825;53.496;10.020;2023-01-25T23:06:17;-1.30;99.90
26051;DHT22;13825;53.496;10.020;2023-01-25T23:08:45;-1.30;99.90
26051;DHT22;13825;53.496;10.020;2023-01-25T23:11:14;-1.40;99.90
26051;DHT22;13825;53.496;10.020;2023-01-25T23:13:43;-1.40;99.90
26051;DHT22;13825;53.496;10.020;2023-01-25T23:16:31;-1.40;99.90
26051;DHT22;13825;53.496;10.020;2023-01-25T23:18:59;-1.40;99.90
26051;DHT22;13825;53.496;10.020;2023-01-25T23:21:27;-1.40;99.90
26051;DHT22;13825;53.496;10.020;2023-01-25T23:23:54;-1.40;99.90
26051;DHT22;13825;53.496;10.020;2023-01-25T23:26:22;-1.40;99.90
26051;DHT22;13825;53.496;10.020;2023-01-25T23:28:51;-1.30;99.90
26051;DHT22;13825;53.496;10.020;2023-01-25T23:31:20;-1.40;99.90
26051;DHT22;13825;53.496;10.020;2023-01-25T23:33:50;-1.40;99.90
26051;DHT22;13825;53.496;10.020;2023-01-25T23:36:19;-1.40;99.90
26051;DHT22;13825;53.496;10.020;2023-01-25T23:38:48;-1.30;1.00
26051;DHT22;13825;53.496;10.020;2023-01-25T23:41:17;-1.30;99.90
26051;DHT22;13825;53.496;10.020;2023-01-25T23:43:45;-1.40;1.00
26051;DHT22;13825;53.496;10.020;2023-01-25T23:46:14;-1.40;1.00
26051;DHT22;13825;53.496;10.020;2023-01-25T23:48:42;-1.40;1.00
26051;DHT22;13825;53.496;10.020;2023-01-25T23:51:09;-1.40;1.00
26051;DHT22;13825;53.496;10.020;2023-01-25T23:53:37;-1.40;1.00
26051;DHT22;13825;53.496;10.020;2023-01-25T23:56:07;-1.40;1.00
26051;DHT22;13825;53.496;10.020;2023-01-25T23:58:35;-1.30;99.90
